Portada
METAR-TAF:

METAR-TAF

Aeroports :

Aeroport de Cherif Al Idrissi

Al Hoceima, Marroc

latitud: 35-11N, longitud: 003-51W, altitud: 27 m

Observació

L'informe es va fer fa 56 minuts, a les 12:00 UTC
Vent 12 kt del Nord-Est
Temperatura 24°C
Humitat 57%
Pressió 1012 hPa
Visibilitat 10 km o més
sense núvols per sota de 1500 mi sense presència de cumulonimbus.

METAR: GMTA 301200Z 04012KT CAVOK 24/15 Q1012 NOSIG

Hora: 13:56 (12:56 UTC)

Pronòstic

L'informe es va fer fa 1 hora i 56 minuts, a les 11:00 UTC
Pronòstic vàlid del 30 a les 12 UTC al 31 a les 18 UTC
Vent 13 kt del Nord/Nord-Est
Visibilitat 10 km o més
sense núvols per sota de 1500 mi sense presència de cumulonimbus.
Probabilitat 30% :
Temporalment
l' 31 a les 06 UTC al 31 a les 12 UTC
Escasses núvols a una alçada de 3000 ft, Cumulonimbus.
tempesta, (lleu

TAF: GMTA 301100Z 3012/3118 02013KT CAVOK PROB30 TEMPO 3106/3112 -TS FEW030CB

Observacions i pronòstics meteorològics de més de 4000 aeroports (METAR i TAF).

Les estacions disponibles són els punts grocs i vermells al mapa.

Posi el ratolí al punt desitjat per veure el nom de l'estació.

Feu clic per veure les observacions i els pronòstics meteorològics.

Per canviar el mapa: feu clic els botons verds amb una creu de color negre per apropar; al botó verd amb un guió per allunyar la imatge; o en les fletxes verdes per a mapes adjacents.


METAR-TAF: